createdAt,value
2023-06-22T00:02:35.032Z,7.90
2023-06-22T00:06:17.171Z,8.30
2023-06-22T00:09:59.043Z,8.10
2023-06-22T00:13:40.890Z,6.97
2023-06-22T00:17:22.743Z,7.90
2023-06-22T00:21:05.426Z,8.18
2023-06-22T00:24:47.224Z,7.47
2023-06-22T00:28:30.040Z,6.97
2023-06-22T00:32:11.947Z,8.18
2023-06-22T00:35:56.686Z,7.65
2023-06-22T00:39:38.471Z,8.50
2023-06-22T00:43:20.709Z,8.50
2023-06-22T00:47:03.392Z,8.95
2023-06-22T00:50:45.415Z,7.72
2023-06-22T00:54:27.574Z,8.30
2023-06-22T00:58:11.835Z,8.20
2023-06-22T01:01:53.922Z,8.15
2023-06-22T01:05:37.250Z,7.65
2023-06-22T01:09:32.372Z,7.82
2023-06-22T01:13:40.791Z,7.78
2023-06-22T01:17:24.242Z,8.23
2023-06-22T01:21:10.566Z,7.75
2023-06-22T01:24:55.352Z,8.75
2023-06-22T01:28:49.995Z,8.82
2023-06-22T01:32:34.023Z,8.38
2023-06-22T01:36:17.526Z,8.60
2023-06-22T01:40:00.494Z,8.38
2023-06-22T01:43:43.754Z,10.15
2023-06-22T01:47:26.573Z,10.02
2023-06-22T01:51:08.600Z,9.10
2023-06-22T01:54:50.399Z,9.60
2023-06-22T01:58:33.156Z,9.48
2023-06-22T02:02:20.617Z,9.77
2023-06-22T02:06:09.131Z,9.25
2023-06-22T02:09:53.703Z,10.00
2023-06-22T02:13:37.264Z,9.05
2023-06-22T02:17:19.588Z,7.93
2023-06-22T02:21:01.402Z,8.13
2023-06-22T02:24:43.231Z,7.25
2023-06-22T02:28:25.036Z,8.90
2023-06-22T02:32:07.224Z,8.23
2023-06-22T02:35:50.174Z,9.02
2023-06-22T02:39:32.073Z,8.80
2023-06-22T02:43:17.871Z,9.15
2023-06-22T02:46:59.946Z,9.75
2023-06-22T02:50:41.722Z,8.60
2023-06-22T02:54:23.519Z,9.13
2023-06-22T02:58:05.808Z,8.07
2023-06-22T03:01:47.660Z,7.80
2023-06-22T03:05:29.458Z,9.13
2023-06-22T03:09:11.912Z,7.72
2023-06-22T03:12:53.750Z,8.85
2023-06-22T03:16:35.746Z,8.48
2023-06-22T03:20:17.541Z,8.52
2023-06-22T03:23:59.337Z,7.97
2023-06-22T03:27:42.001Z,8.68
2023-06-22T03:31:24.571Z,8.98
2023-06-22T03:35:07.780Z,9.50
2023-06-22T03:38:50.868Z,7.70
2023-06-22T03:42:32.644Z,8.95
2023-06-22T03:46:14.507Z,7.75
2023-06-22T03:49:56.423Z,9.18
2023-06-22T03:53:38.251Z,8.10
2023-06-22T03:57:20.070Z,7.85
2023-06-22T04:01:01.899Z,8.40
2023-06-22T04:04:43.803Z,7.65
2023-06-22T04:08:25.776Z,7.10
2023-06-22T04:12:08.131Z,7.30
2023-06-22T04:15:49.995Z,7.93
2023-06-22T04:19:31.993Z,8.30
2023-06-22T04:23:14.246Z,6.97
2023-06-22T04:26:56.183Z,7.20
2023-06-22T04:30:47.155Z,6.35
2023-06-22T04:34:29.005Z,6.97
2023-06-22T04:38:14.246Z,6.95
2023-06-22T04:42:01.244Z,7.50
2023-06-22T04:45:43.139Z,6.82
2023-06-22T04:49:33.557Z,6.68
2023-06-22T04:53:15.358Z,6.25
2023-06-22T04:56:59.920Z,5.93
2023-06-22T05:00:41.752Z,5.60
2023-06-22T05:04:24.895Z,5.97
2023-06-22T05:08:07.964Z,6.53
2023-06-22T05:11:49.758Z,7.57
2023-06-22T05:15:37.780Z,8.38
2023-06-22T05:19:19.598Z,7.20
2023-06-22T05:23:01.489Z,7.95
2023-06-22T05:26:43.270Z,8.77
2023-06-22T05:30:25.063Z,10.20
2023-06-22T05:34:06.919Z,10.05
2023-06-22T05:37:49.383Z,9.75
2023-06-22T05:41:31.134Z,10.90
2023-06-22T05:45:13.020Z,10.63
2023-06-22T05:48:54.789Z,11.10
2023-06-22T05:52:36.629Z,10.25
2023-06-22T05:56:18.722Z,11.35
2023-06-22T06:00:00.522Z,11.88
2023-06-22T06:03:42.665Z,11.52
2023-06-22T06:07:24.917Z,12.68
2023-06-22T06:11:06.961Z,12.45
2023-06-22T06:14:48.936Z,13.25
2023-06-22T06:18:30.724Z,13.23
2023-06-22T06:22:12.649Z,13.40
2023-06-22T06:25:54.514Z,11.68
2023-06-22T06:29:36.286Z,12.63
2023-06-22T06:33:18.186Z,12.60
2023-06-22T06:36:59.981Z,11.75
2023-06-22T06:40:42.121Z,11.07
2023-06-22T06:44:23.956Z,9.98
2023-06-22T06:48:05.997Z,10.07
2023-06-22T06:51:47.821Z,10.35
2023-06-22T06:55:34.023Z,8.88
2023-06-22T06:59:16.531Z,9.32
2023-06-22T07:02:58.368Z,8.75
2023-06-22T07:06:40.184Z,8.68
2023-06-22T07:10:22.133Z,7.45
2023-06-22T07:14:04.140Z,7.05
2023-06-22T07:17:46.050Z,6.60
2023-06-22T07:21:27.955Z,5.95
2023-06-22T07:25:10.553Z,5.72
2023-06-22T07:28:52.351Z,4.75
2023-06-22T07:32:34.183Z,4.32
2023-06-22T07:36:16.080Z,4.28
2023-06-22T07:40:00.826Z,4.70
2023-06-22T07:43:42.701Z,4.00
2023-06-22T07:47:27.537Z,3.97
2023-06-22T07:51:09.403Z,4.57
2023-06-22T07:54:51.258Z,4.40
2023-06-22T07:58:33.048Z,4.75
2023-06-22T08:02:14.946Z,3.95
2023-06-22T08:05:56.916Z,4.13
2023-06-22T08:09:38.715Z,3.70
2023-06-22T08:13:20.678Z,4.38
2023-06-22T08:17:02.452Z,4.22
2023-06-22T08:20:44.670Z,4.57
2023-06-22T08:24:26.464Z,4.07
2023-06-22T08:28:08.374Z,4.95
2023-06-22T08:31:50.225Z,3.97
2023-06-22T08:35:32.510Z,3.92
2023-06-22T08:39:14.650Z,3.47
2023-06-22T08:42:56.572Z,3.20
2023-06-22T08:46:39.995Z,3.20
2023-06-22T08:50:21.804Z,4.07
2023-06-22T08:54:03.728Z,2.97
2023-06-22T08:57:45.791Z,3.88
2023-06-22T09:01:27.576Z,3.55
2023-06-22T09:05:09.962Z,4.50
2023-06-22T09:08:51.901Z,3.78
2023-06-22T09:12:34.241Z,3.55
2023-06-22T09:16:16.206Z,3.40
2023-06-22T09:19:58.109Z,3.55
2023-06-22T09:23:40.013Z,2.80
2023-06-22T09:27:21.871Z,2.95
2023-06-22T09:31:03.653Z,3.33
2023-06-22T09:34:45.620Z,3.65
2023-06-22T09:38:27.392Z,2.83
2023-06-22T09:42:09.505Z,3.55
2023-06-22T09:45:51.567Z,3.40
2023-06-22T09:49:47.402Z,3.38
2023-06-22T09:53:30.092Z,3.53
2023-06-22T09:57:13.241Z,2.83
2023-06-22T10:00:55.495Z,2.63
2023-06-22T10:04:37.800Z,3.40
2023-06-22T10:08:20.019Z,2.65
2023-06-22T10:12:01.862Z,2.83
2023-06-22T10:15:43.963Z,3.08
2023-06-22T10:19:25.764Z,3.25
2023-06-22T10:23:07.636Z,3.03
2023-06-22T10:26:49.546Z,3.20
2023-06-22T10:30:31.491Z,3.50
2023-06-22T10:34:13.295Z,3.20
2023-06-22T10:37:55.995Z,2.78
2023-06-22T10:41:37.779Z,2.83
2023-06-22T10:45:19.621Z,2.08
2023-06-22T10:49:01.437Z,2.15
2023-06-22T10:52:43.364Z,1.75
2023-06-22T10:56:25.176Z,1.98
2023-06-22T11:00:08.186Z,1.90
2023-06-22T11:03:50.028Z,1.70
2023-06-22T11:07:32.323Z,1.70
2023-06-22T11:11:14.145Z,2.10
2023-06-22T11:14:59.577Z,1.80
2023-06-22T11:18:41.724Z,1.92
2023-06-22T11:22:23.535Z,1.90
2023-06-22T11:26:05.313Z,1.80
2023-06-22T11:29:47.165Z,2.05
2023-06-22T11:33:28.960Z,2.03
2023-06-22T11:37:10.776Z,1.95
2023-06-22T11:40:52.546Z,1.80
2023-06-22T11:44:34.336Z,1.90
2023-06-22T11:48:16.151Z,2.58
2023-06-22T11:51:58.032Z,2.67
2023-06-22T11:55:39.795Z,2.30
2023-06-22T11:59:23.415Z,2.17
2023-06-22T12:03:05.666Z,2.50
2023-06-22T12:06:47.568Z,2.35
2023-06-22T12:10:32.671Z,1.98
2023-06-22T12:14:14.739Z,2.28
2023-06-22T12:17:56.576Z,1.70
2023-06-22T12:21:39.355Z,2.00
2023-06-22T12:25:21.272Z,2.10
2023-06-22T12:29:03.173Z,2.15
2023-06-22T12:32:44.952Z,1.40
2023-06-22T12:36:26.771Z,1.67
2023-06-22T12:40:09.345Z,1.60
2023-06-22T12:43:51.151Z,2.00
2023-06-22T12:47:33.087Z,1.98
2023-06-22T12:51:23.062Z,1.85
2023-06-22T12:55:05.106Z,1.63
2023-06-22T12:58:47.045Z,1.58
2023-06-22T13:02:28.869Z,2.25
2023-06-22T13:06:10.752Z,2.20
2023-06-22T13:09:53.358Z,1.63
2023-06-22T13:13:35.534Z,2.20
2023-06-22T13:17:17.520Z,1.90
2023-06-22T13:20:59.429Z,1.80
2023-06-22T13:24:41.186Z,1.98
2023-06-22T13:28:28.332Z,1.63
2023-06-22T13:32:10.762Z,1.42
2023-06-22T13:35:52.590Z,1.70
2023-06-22T13:39:34.397Z,1.73
2023-06-22T13:43:16.965Z,1.55
2023-06-22T13:46:58.929Z,1.85
2023-06-22T13:50:40.799Z,1.67
2023-06-22T13:54:29.323Z,1.52
2023-06-22T13:58:12.022Z,1.75
2023-06-22T14:01:53.821Z,1.75
2023-06-22T14:05:35.659Z,1.88
2023-06-22T14:09:17.500Z,2.10
2023-06-22T14:13:01.095Z,1.70
2023-06-22T14:16:42.853Z,2.00
2023-06-22T14:20:24.698Z,1.98
2023-06-22T14:24:06.694Z,1.90
2023-06-22T14:27:48.552Z,1.83
2023-06-22T14:31:30.470Z,1.63
2023-06-22T14:35:12.429Z,2.17
2023-06-22T14:38:54.256Z,2.40
2023-06-22T14:42:36.406Z,2.08
2023-06-22T14:46:21.442Z,1.80
2023-06-22T14:53:46.580Z,1.40
2023-06-22T14:57:28.551Z,2.15
2023-06-22T15:01:10.386Z,1.95
2023-06-22T15:04:54.110Z,1.70
2023-06-22T15:08:37.722Z,1.63
2023-06-22T15:12:19.602Z,1.80
2023-06-22T15:16:02.274Z,1.90
2023-06-22T15:19:44.094Z,1.75
2023-06-22T15:23:26.851Z,1.60
2023-06-22T15:27:08.730Z,1.88
2023-06-22T15:30:50.964Z,1.55
2023-06-22T15:34:32.917Z,1.83
2023-06-22T15:38:14.818Z,1.63
2023-06-22T15:41:56.907Z,1.85
2023-06-22T15:45:38.731Z,1.48
2023-06-22T15:49:20.615Z,1.55
2023-06-22T15:53:04.684Z,1.80
2023-06-22T15:56:46.585Z,1.73
2023-06-22T16:00:28.876Z,1.52
2023-06-22T16:04:10.879Z,1.55
2023-06-22T16:07:52.682Z,1.52
2023-06-22T16:11:34.490Z,1.40
2023-06-22T16:15:16.405Z,1.42
2023-06-22T16:18:58.268Z,1.30
2023-06-22T16:22:40.375Z,1.70
2023-06-22T16:26:22.301Z,1.33
2023-06-22T16:30:04.592Z,1.00
2023-06-22T16:33:49.064Z,1.63
2023-06-22T16:37:30.930Z,1.30
2023-06-22T16:41:13.714Z,1.50
2023-06-22T16:44:55.539Z,1.67
2023-06-22T16:48:38.208Z,1.38
2023-06-22T16:52:20.125Z,1.17
2023-06-22T16:56:02.121Z,1.20
2023-06-22T16:59:43.888Z,1.20
2023-06-22T17:03:34.692Z,1.40
2023-06-22T17:07:20.739Z,1.33
2023-06-22T17:11:02.789Z,1.42
2023-06-22T17:14:45.572Z,1.20
2023-06-22T17:18:27.682Z,1.48
2023-06-22T17:22:09.472Z,0.98
2023-06-22T17:25:53.984Z,1.30
2023-06-22T17:29:36.021Z,1.10
2023-06-22T17:33:20.239Z,1.27
2023-06-22T17:37:02.720Z,1.02
2023-06-22T17:40:44.534Z,1.35
2023-06-22T17:44:29.526Z,1.08
2023-06-22T17:48:11.782Z,1.73
2023-06-22T17:51:54.063Z,1.58
2023-06-22T17:55:35.943Z,1.45
2023-06-22T17:59:19.805Z,1.65
2023-06-22T18:03:01.831Z,1.95
2023-06-22T18:06:46.533Z,1.75
2023-06-22T18:10:30.176Z,1.92
2023-06-22T18:14:14.703Z,1.90
2023-06-22T18:17:56.592Z,1.90
2023-06-22T18:21:38.868Z,1.90
2023-06-22T18:25:21.351Z,1.65
2023-06-22T18:29:04.265Z,1.70
2023-06-22T18:32:46.168Z,2.17
2023-06-22T18:36:30.707Z,1.88
2023-06-22T18:40:17.959Z,1.50
2023-06-22T18:44:01.202Z,1.75
2023-06-22T18:47:57.400Z,1.70
2023-06-22T18:52:04.259Z,1.88
2023-06-22T18:55:51.366Z,1.70
2023-06-22T18:59:46.741Z,1.70
2023-06-22T19:03:33.207Z,1.70
2023-06-22T19:07:15.415Z,2.13
2023-06-22T19:11:13.691Z,2.00
2023-06-22T19:15:20.478Z,1.85
2023-06-22T19:19:14.210Z,1.90
2023-06-22T19:22:58.361Z,1.80
2023-06-22T19:26:51.187Z,1.70
2023-06-22T19:30:33.655Z,2.40
2023-06-22T19:34:16.087Z,2.15
2023-06-22T19:37:57.980Z,1.88
2023-06-22T19:41:40.302Z,2.13
2023-06-22T19:45:22.507Z,2.33
2023-06-22T19:49:04.355Z,2.30
2023-06-22T19:52:48.381Z,1.95
2023-06-22T19:56:30.505Z,2.63
2023-06-22T20:00:14.114Z,2.80
2023-06-22T20:03:56.743Z,2.60
2023-06-22T20:07:43.095Z,2.42
2023-06-22T20:11:30.619Z,2.80
2023-06-22T20:15:21.095Z,2.58
2023-06-22T20:19:12.757Z,3.03
2023-06-22T20:22:58.259Z,2.88
2023-06-22T20:26:41.488Z,2.90
2023-06-22T20:30:23.490Z,2.70
2023-06-22T20:34:05.347Z,3.10
2023-06-22T20:37:48.704Z,3.33
2023-06-22T20:41:32.618Z,3.38
2023-06-22T20:45:14.457Z,3.45
2023-06-22T20:48:56.291Z,2.80
2023-06-22T20:52:41.193Z,2.95
2023-06-22T20:56:23.008Z,3.28
2023-06-22T21:00:08.814Z,3.03
2023-06-22T21:03:50.745Z,3.53
2023-06-22T21:07:32.618Z,3.78
2023-06-22T21:11:14.559Z,3.95
2023-06-22T21:14:56.745Z,3.42
2023-06-22T21:18:39.184Z,3.22
2023-06-22T21:22:21.336Z,3.53
2023-06-22T21:26:03.182Z,3.00
2023-06-22T21:29:44.994Z,3.53
2023-06-22T21:33:26.854Z,3.08
2023-06-22T21:37:08.691Z,3.22
2023-06-22T21:40:50.491Z,3.40
2023-06-22T21:44:32.330Z,3.70
2023-06-22T21:48:14.128Z,3.38
2023-06-22T21:51:55.906Z,2.97
2023-06-22T21:55:37.744Z,3.65
2023-06-22T21:59:19.558Z,3.40
2023-06-22T22:03:01.493Z,3.50
2023-06-22T22:06:43.579Z,3.72
2023-06-22T22:10:25.357Z,3.53
2023-06-22T22:14:09.766Z,4.05
2023-06-22T22:17:51.655Z,3.85
2023-06-22T22:21:33.837Z,3.90
2023-06-22T22:25:15.630Z,3.92
2023-06-22T22:28:58.249Z,4.40
2023-06-22T22:32:40.095Z,4.05
2023-06-22T22:36:21.916Z,4.72
2023-06-22T22:40:07.847Z,4.75
2023-06-22T22:43:49.647Z,4.50
2023-06-22T22:47:32.149Z,3.97
2023-06-22T22:51:14.315Z,4.10
2023-06-22T22:54:57.060Z,4.47
2023-06-22T22:58:39.072Z,4.20
2023-06-22T23:02:23.076Z,4.00
2023-06-22T23:06:05.138Z,4.03
2023-06-22T23:09:49.101Z,3.92
2023-06-22T23:13:30.995Z,4.28
2023-06-22T23:17:12.869Z,3.92
2023-06-22T23:20:54.693Z,4.18
2023-06-22T23:24:37.149Z,4.25
2023-06-22T23:28:25.703Z,4.78
2023-06-22T23:32:18.337Z,4.82
2023-06-22T23:36:00.595Z,4.53
2023-06-22T23:39:44.616Z,5.35
2023-06-22T23:43:26.447Z,4.45
2023-06-22T23:47:08.284Z,4.68
2023-06-22T23:50:51.008Z,4.38
2023-06-22T23:54:32.778Z,4.50
2023-06-22T23:58:18.617Z,4.88
